Entebbe, Uganda
Current Conditions -  °F | °C
As of 1:55 AM on Thursday 23 Oct 2014 (Local Time) from KQUD Reporting Station
Broken Clouds Broken Clouds  
Wind Chill: 21°   Ceiling: 9500
Heat Index: 21°   Visibility: 8mi
Dew Point: 18°   Wind: 1mph
Humidity: 84%   Direction: NA
Pressure: 30.17"   Gusts: NA
Location:  0.06°N, 32.46°E
Report Text: KQUD 222255Z AUTO VRB01KT 8SM SCT080 BKN095 21/18 A3017 RMK AO2 SLP162 T02080181 $
Loading
Personal Weather Stations






























Interactive Weather Map
Tropical Storm Tracking
New forecast layout! Learn more

10-Day Weather Forecast

Advertisements
Track Severe Weather on mobile